Big Horn, WY (82833)

11:37 PM MDT on August 27, 2015 (GMT -0600)
Sheridan County | | Change Station
CLOSE
Current Station
Airport
Location: Sheridan,
Elevation: 3967 ft
Nearby Weather Stations

Elev 3967 ft 44.76 °N, 106.97 °W | Updated 44 minutes ago

Clear
Clear
74 °F
Feels Like 74 °F
N
14
Wind Variable Wind from WSW

Today
High -- | Low -- °F
--% Chance of Precip.
Yesterday
High -- | Low -- °F
Precip. -- in
6:24 AM 7:53 PM
Waxing Gibbous, 96% visible
Pressure 29.96 in
Visibility 8.0 miles
Clouds Clear
Dew Point 41 °F
Humidity 30%
Rainfall 0.03 in
Snow Depth Not available.
UV 0 out of 12
Pollen 8.60 out of 12
Air Quality Not available.
Flu Activity Not available.
METAR KSHR 280453Z AUTO 25012KT 8SM CLR 23/05 A3008 RMK AO2 SLP144 T02330050
Pressure 29.96 in
Visibility 8.0 miles
Clouds Clear
Dew Point 41 °F
Humidity 30%
Rainfall 0.03 in
Snow Depth Not available.
UV 0 out of 12
Pollen 8.60 out of 12
Air Quality Not available.
Flu Activity Not available.
METAR KSHR 280453Z AUTO 25012KT 8SM CLR 23/05 A3008 RMK AO2 SLP144 T02330050

10-Day Weather Forecast

×

Almanac

Astronomy

Aug. 27, 2015 Rise Set
Actual Time
Civil Twilight
Nautical Twilight
Astronomical Twilight
Moon
Length of Visible Light
Length of Day
Tomorrow will be .
, % of the Moon is Illuminated

Today's Extremes

State Highs State Lows

Community

WunderPhotos

Upload Photos

1,850,341 photos uploaded!

WunderBlogs® & News

Nearby

Air Quality

  Air Quality AQ Index Pollutant
Not available.

Snow Depth

Station Depth Elevation

Earthquake Activity

City Distance Mag. Time & Date
Minimum magnitude displayed is 2.5.

Coastal Water Temperatures

Place Temperature

Stations

Nearby Weather Stations

Station Location Temp. Windchill Dew Point Humidity Wind Precip. Elev Updated Type